sensor_id;sensor_type;location;lat;lon;timestamp;P1;durP1;ratioP1;P2;durP2;ratioP2
61477;SDS011;47345;52.334;10.392;2022-07-21T00:01:07;11.90;;;6.20;;
61477;SDS011;47345;52.334;10.392;2022-07-21T00:03:39;6.90;;;4.70;;
61477;SDS011;47345;52.334;10.392;2022-07-21T00:06:09;10.10;;;6.40;;
61477;SDS011;47345;52.334;10.392;2022-07-21T00:08:40;8.30;;;5.90;;
61477;SDS011;47345;52.334;10.392;2022-07-21T00:11:11;9.10;;;5.70;;
61477;SDS011;47345;52.334;10.392;2022-07-21T00:13:42;8.20;;;5.40;;
61477;SDS011;47345;52.334;10.392;2022-07-21T00:16:12;8.60;;;5.70;;
61477;SDS011;47345;52.334;10.392;2022-07-21T00:18:50;7.80;;;5.50;;
61477;SDS011;47345;52.334;10.392;2022-07-21T00:21:21;9.10;;;5.40;;
61477;SDS011;47345;52.334;10.392;2022-07-21T00:23:52;6.00;;;4.40;;
61477;SDS011;47345;52.334;10.392;2022-07-21T00:26:23;7.40;;;5.00;;
61477;SDS011;47345;52.334;10.392;2022-07-21T00:28:54;8.80;;;5.10;;
61477;SDS011;47345;52.334;10.392;2022-07-21T00:31:24;7.50;;;4.70;;
61477;SDS011;47345;52.334;10.392;2022-07-21T00:33:55;6.90;;;4.70;;
61477;SDS011;47345;52.334;10.392;2022-07-21T00:36:25;7.30;;;4.80;;
61477;SDS011;47345;52.334;10.392;2022-07-21T00:38:56;10.40;;;5.10;;
61477;SDS011;47345;52.334;10.392;2022-07-21T00:41:27;6.60;;;4.70;;
61477;SDS011;47345;52.334;10.392;2022-07-21T00:43:58;8.40;;;4.60;;
61477;SDS011;47345;52.334;10.392;2022-07-21T00:46:29;6.50;;;5.00;;
61477;SDS011;47345;52.334;10.392;2022-07-21T00:49:00;6.90;;;5.00;;
61477;SDS011;47345;52.334;10.392;2022-07-21T00:51:30;12.00;;;5.20;;
61477;SDS011;47345;52.334;10.392;2022-07-21T00:54:01;7.00;;;5.10;;
61477;SDS011;47345;52.334;10.392;2022-07-21T00:56:31;8.00;;;5.10;;
61477;SDS011;47345;52.334;10.392;2022-07-21T00:59:02;6.50;;;4.90;;
61477;SDS011;47345;52.334;10.392;2022-07-21T01:01:32;7.40;;;5.00;;
61477;SDS011;47345;52.334;10.392;2022-07-21T01:04:03;9.20;;;5.60;;
61477;SDS011;47345;52.334;10.392;2022-07-21T01:06:34;8.50;;;5.50;;
61477;SDS011;47345;52.334;10.392;2022-07-21T01:09:04;7.40;;;4.40;;
61477;SDS011;47345;52.334;10.392;2022-07-21T01:11:38;10.20;;;5.90;;
61477;SDS011;47345;52.334;10.392;2022-07-21T01:14:10;10.10;;;4.70;;
61477;SDS011;47345;52.334;10.392;2022-07-21T01:16:41;6.20;;;4.90;;
61477;SDS011;47345;52.334;10.392;2022-07-21T01:19:12;8.30;;;5.10;;
61477;SDS011;47345;52.334;10.392;2022-07-21T01:21:43;9.10;;;5.60;;
61477;SDS011;47345;52.334;10.392;2022-07-21T01:24:15;5.40;;;4.20;;
61477;SDS011;47345;52.334;10.392;2022-07-21T01:26:46;11.80;;;5.40;;
61477;SDS011;47345;52.334;10.392;2022-07-21T01:29:20;7.40;;;4.30;;
61477;SDS011;47345;52.334;10.392;2022-07-21T01:31:50;8.40;;;5.20;;
61477;SDS011;47345;52.334;10.392;2022-07-21T01:34:21;7.40;;;4.90;;
61477;SDS011;47345;52.334;10.392;2022-07-21T01:36:51;7.10;;;4.30;;
61477;SDS011;47345;52.334;10.392;2022-07-21T01:39:21;8.60;;;4.80;;
61477;SDS011;47345;52.334;10.392;2022-07-21T01:42:10;6.40;;;4.30;;
61477;SDS011;47345;52.334;10.392;2022-07-21T01:44:40;19.20;;;4.30;;
61477;SDS011;47345;52.334;10.392;2022-07-21T01:47:11;6.60;;;4.30;;
61477;SDS011;47345;52.334;10.392;2022-07-21T01:49:42;5.60;;;4.10;;
61477;SDS011;47345;52.334;10.392;2022-07-21T01:52:13;7.10;;;4.50;;
61477;SDS011;47345;52.334;10.392;2022-07-21T01:54:43;6.10;;;4.50;;
61477;SDS011;47345;52.334;10.392;2022-07-21T01:57:13;8.70;;;5.20;;
61477;SDS011;47345;52.334;10.392;2022-07-21T01:59:44;7.10;;;4.60;;
61477;SDS011;47345;52.334;10.392;2022-07-21T02:02:14;7.90;;;3.50;;
61477;SDS011;47345;52.334;10.392;2022-07-21T02:04:48;6.20;;;3.80;;
61477;SDS011;47345;52.334;10.392;2022-07-21T02:07:19;9.60;;;4.90;;
61477;SDS011;47345;52.334;10.392;2022-07-21T02:09:49;7.60;;;4.30;;
61477;SDS011;47345;52.334;10.392;2022-07-21T02:12:19;5.30;;;4.30;;
61477;SDS011;47345;52.334;10.392;2022-07-21T02:14:49;6.40;;;4.40;;
61477;SDS011;47345;52.334;10.392;2022-07-21T02:17:20;6.40;;;4.20;;
61477;SDS011;47345;52.334;10.392;2022-07-21T02:19:50;6.10;;;4.40;;
61477;SDS011;47345;52.334;10.392;2022-07-21T02:22:20;6.20;;;4.40;;
61477;SDS011;47345;52.334;10.392;2022-07-21T02:24:50;6.20;;;3.70;;
61477;SDS011;47345;52.334;10.392;2022-07-21T02:27:20;8.10;;;4.70;;
61477;SDS011;47345;52.334;10.392;2022-07-21T02:29:50;5.40;;;3.40;;
61477;SDS011;47345;52.334;10.392;2022-07-21T02:32:21;5.90;;;3.70;;
61477;SDS011;47345;52.334;10.392;2022-07-21T02:34:51;6.00;;;4.20;;
61477;SDS011;47345;52.334;10.392;2022-07-21T02:37:21;6.20;;;4.30;;
61477;SDS011;47345;52.334;10.392;2022-07-21T02:39:52;6.40;;;4.50;;
61477;SDS011;47345;52.334;10.392;2022-07-21T02:42:22;7.20;;;4.50;;
61477;SDS011;47345;52.334;10.392;2022-07-21T02:44:53;5.70;;;3.90;;
61477;SDS011;47345;52.334;10.392;2022-07-21T02:47:23;7.80;;;4.70;;
61477;SDS011;47345;52.334;10.392;2022-07-21T02:49:53;5.40;;;3.70;;
61477;SDS011;47345;52.334;10.392;2022-07-21T02:52:24;5.60;;;3.90;;
61477;SDS011;47345;52.334;10.392;2022-07-21T02:54:54;6.60;;;4.40;;
61477;SDS011;47345;52.334;10.392;2022-07-21T02:57:24;7.60;;;5.10;;
61477;SDS011;47345;52.334;10.392;2022-07-21T02:59:55;6.50;;;4.70;;
61477;SDS011;47345;52.334;10.392;2022-07-21T03:02:25;7.00;;;4.90;;
61477;SDS011;47345;52.334;10.392;2022-07-21T03:04:56;6.70;;;4.30;;
61477;SDS011;47345;52.334;10.392;2022-07-21T03:07:26;5.70;;;3.60;;
61477;SDS011;47345;52.334;10.392;2022-07-21T03:09:56;7.80;;;3.80;;
61477;SDS011;47345;52.334;10.392;2022-07-21T03:12:26;6.30;;;4.00;;
61477;SDS011;47345;52.334;10.392;2022-07-21T03:14:56;6.60;;;4.60;;
61477;SDS011;47345;52.334;10.392;2022-07-21T03:17:27;8.30;;;4.10;;
61477;SDS011;47345;52.334;10.392;2022-07-21T03:19:57;7.50;;;4.50;;
61477;SDS011;47345;52.334;10.392;2022-07-21T03:22:27;5.80;;;3.90;;
61477;SDS011;47345;52.334;10.392;2022-07-21T03:24:58;6.00;;;4.50;;
61477;SDS011;47345;52.334;10.392;2022-07-21T03:27:28;9.00;;;4.50;;
61477;SDS011;47345;52.334;10.392;2022-07-21T03:30:05;6.60;;;3.70;;
61477;SDS011;47345;52.334;10.392;2022-07-21T03:32:38;4.90;;;3.40;;
61477;SDS011;47345;52.334;10.392;2022-07-21T03:35:09;6.10;;;3.90;;
61477;SDS011;47345;52.334;10.392;2022-07-21T03:37:41;5.40;;;4.00;;
61477;SDS011;47345;52.334;10.392;2022-07-21T03:40:13;6.50;;;4.70;;
61477;SDS011;47345;52.334;10.392;2022-07-21T03:42:45;6.10;;;4.40;;
61477;SDS011;47345;52.334;10.392;2022-07-21T03:45:15;5.10;;;3.40;;
61477;SDS011;47345;52.334;10.392;2022-07-21T03:47:46;6.60;;;4.70;;
61477;SDS011;47345;52.334;10.392;2022-07-21T03:50:17;5.10;;;4.30;;
61477;SDS011;47345;52.334;10.392;2022-07-21T03:52:47;6.00;;;4.10;;
61477;SDS011;47345;52.334;10.392;2022-07-21T03:55:18;6.90;;;4.20;;
61477;SDS011;47345;52.334;10.392;2022-07-21T03:57:49;9.40;;;4.60;;
61477;SDS011;47345;52.334;10.392;2022-07-21T04:00:23;6.30;;;4.60;;
61477;SDS011;47345;52.334;10.392;2022-07-21T04:02:55;5.70;;;4.10;;
61477;SDS011;47345;52.334;10.392;2022-07-21T04:05:27;6.00;;;4.30;;
61477;SDS011;47345;52.334;10.392;2022-07-21T04:07:58;7.20;;;4.40;;
61477;SDS011;47345;52.334;10.392;2022-07-21T04:10:29;7.10;;;4.70;;
61477;SDS011;47345;52.334;10.392;2022-07-21T04:13:03;7.10;;;4.30;;
61477;SDS011;47345;52.334;10.392;2022-07-21T04:15:35;6.40;;;4.30;;
61477;SDS011;47345;52.334;10.392;2022-07-21T04:18:06;7.80;;;4.60;;
61477;SDS011;47345;52.334;10.392;2022-07-21T04:20:37;6.80;;;4.20;;
61477;SDS011;47345;52.334;10.392;2022-07-21T04:23:07;7.50;;;4.60;;
61477;SDS011;47345;52.334;10.392;2022-07-21T04:25:37;8.50;;;4.90;;
61477;SDS011;47345;52.334;10.392;2022-07-21T04:28:08;6.00;;;4.60;;
61477;SDS011;47345;52.334;10.392;2022-07-21T04:30:39;7.00;;;4.30;;
61477;SDS011;47345;52.334;10.392;2022-07-21T04:33:09;5.50;;;4.40;;
61477;SDS011;47345;52.334;10.392;2022-07-21T04:35:40;12.50;;;9.00;;
61477;SDS011;47345;52.334;10.392;2022-07-21T04:38:10;17.70;;;10.70;;
61477;SDS011;47345;52.334;10.392;2022-07-21T04:40:42;11.30;;;5.50;;
61477;SDS011;47345;52.334;10.392;2022-07-21T04:43:12;8.60;;;5.00;;
61477;SDS011;47345;52.334;10.392;2022-07-21T04:45:45;6.50;;;4.60;;
61477;SDS011;47345;52.334;10.392;2022-07-21T04:48:15;6.10;;;4.30;;
61477;SDS011;47345;52.334;10.392;2022-07-21T04:50:46;8.40;;;4.90;;
61477;SDS011;47345;52.334;10.392;2022-07-21T04:53:16;7.70;;;4.80;;
61477;SDS011;47345;52.334;10.392;2022-07-21T04:55:47;12.20;;;5.20;;
61477;SDS011;47345;52.334;10.392;2022-07-21T04:58:18;6.50;;;4.30;;
61477;SDS011;47345;52.334;10.392;2022-07-21T05:00:49;7.10;;;4.80;;
61477;SDS011;47345;52.334;10.392;2022-07-21T05:03:19;6.80;;;4.90;;
61477;SDS011;47345;52.334;10.392;2022-07-21T05:05:50;9.00;;;5.60;;
61477;SDS011;47345;52.334;10.392;2022-07-21T05:08:20;8.00;;;4.80;;
61477;SDS011;47345;52.334;10.392;2022-07-21T05:10:53;11.70;;;4.70;;
61477;SDS011;47345;52.334;10.392;2022-07-21T05:13:24;6.30;;;4.50;;
61477;SDS011;47345;52.334;10.392;2022-07-21T05:15:55;6.30;;;4.80;;
61477;SDS011;47345;52.334;10.392;2022-07-21T05:18:25;7.70;;;5.00;;
61477;SDS011;47345;52.334;10.392;2022-07-21T05:20:55;8.20;;;5.00;;
61477;SDS011;47345;52.334;10.392;2022-07-21T05:23:26;7.00;;;4.90;;
61477;SDS011;47345;52.334;10.392;2022-07-21T05:25:57;8.20;;;4.80;;
61477;SDS011;47345;52.334;10.392;2022-07-21T05:28:29;9.40;;;4.40;;
61477;SDS011;47345;52.334;10.392;2022-07-21T05:30:59;7.50;;;4.80;;
61477;SDS011;47345;52.334;10.392;2022-07-21T05:33:30;5.70;;;4.30;;
61477;SDS011;47345;52.334;10.392;2022-07-21T05:36:00;6.30;;;4.30;;
61477;SDS011;47345;52.334;10.392;2022-07-21T05:38:31;5.00;;;3.90;;
61477;SDS011;47345;52.334;10.392;2022-07-21T05:41:02;5.90;;;4.10;;
61477;SDS011;47345;52.334;10.392;2022-07-21T05:43:33;7.30;;;3.70;;
61477;SDS011;47345;52.334;10.392;2022-07-21T05:46:04;4.30;;;3.20;;
61477;SDS011;47345;52.334;10.392;2022-07-21T05:48:34;4.50;;;3.20;;
61477;SDS011;47345;52.334;10.392;2022-07-21T05:51:05;5.30;;;3.60;;
61477;SDS011;47345;52.334;10.392;2022-07-21T05:56:11;4.00;;;3.20;;
61477;SDS011;47345;52.334;10.392;2022-07-21T05:58:41;5.20;;;3.00;;
61477;SDS011;47345;52.334;10.392;2022-07-21T06:01:11;5.00;;;3.40;;
61477;SDS011;47345;52.334;10.392;2022-07-21T06:03:46;4.00;;;3.50;;
61477;SDS011;47345;52.334;10.392;2022-07-21T06:06:18;3.60;;;3.00;;
61477;SDS011;47345;52.334;10.392;2022-07-21T06:08:50;4.60;;;3.50;;
61477;SDS011;47345;52.334;10.392;2022-07-21T06:11:21;4.50;;;3.10;;
61477;SDS011;47345;52.334;10.392;2022-07-21T06:13:52;4.20;;;3.40;;
61477;SDS011;47345;52.334;10.392;2022-07-21T06:16:22;3.80;;;3.40;;
61477;SDS011;47345;52.334;10.392;2022-07-21T06:18:53;5.10;;;3.60;;
61477;SDS011;47345;52.334;10.392;2022-07-21T06:21:24;5.20;;;3.40;;
61477;SDS011;47345;52.334;10.392;2022-07-21T06:23:54;6.60;;;3.80;;
61477;SDS011;47345;52.334;10.392;2022-07-21T06:26:25;5.50;;;3.50;;
61477;SDS011;47345;52.334;10.392;2022-07-21T06:28:56;4.80;;;3.60;;
61477;SDS011;47345;52.334;10.392;2022-07-21T06:31:26;5.20;;;3.80;;
61477;SDS011;47345;52.334;10.392;2022-07-21T06:33:57;7.00;;;4.80;;
61477;SDS011;47345;52.334;10.392;2022-07-21T06:36:28;5.20;;;3.80;;
61477;SDS011;47345;52.334;10.392;2022-07-21T06:38:58;5.40;;;4.10;;
61477;SDS011;47345;52.334;10.392;2022-07-21T06:41:29;6.10;;;4.10;;
61477;SDS011;47345;52.334;10.392;2022-07-21T06:43:59;6.80;;;4.40;;
61477;SDS011;47345;52.334;10.392;2022-07-21T06:46:33;6.90;;;4.20;;
61477;SDS011;47345;52.334;10.392;2022-07-21T06:49:03;5.90;;;4.00;;
61477;SDS011;47345;52.334;10.392;2022-07-21T06:51:34;6.10;;;4.40;;
61477;SDS011;47345;52.334;10.392;2022-07-21T06:54:04;5.30;;;3.70;;
61477;SDS011;47345;52.334;10.392;2022-07-21T06:56:34;11.10;;;4.20;;
61477;SDS011;47345;52.334;10.392;2022-07-21T06:59:05;4.50;;;3.50;;
61477;SDS011;47345;52.334;10.392;2022-07-21T07:01:35;7.10;;;3.90;;
61477;SDS011;47345;52.334;10.392;2022-07-21T07:04:07;5.80;;;4.30;;
61477;SDS011;47345;52.334;10.392;2022-07-21T07:06:37;6.50;;;4.10;;
61477;SDS011;47345;52.334;10.392;2022-07-21T07:09:08;9.10;;;4.50;;
61477;SDS011;47345;52.334;10.392;2022-07-21T07:11:38;6.00;;;4.10;;
61477;SDS011;47345;52.334;10.392;2022-07-21T07:14:28;5.60;;;4.00;;
61477;SDS011;47345;52.334;10.392;2022-07-21T07:16:59;7.20;;;4.20;;
61477;SDS011;47345;52.334;10.392;2022-07-21T07:19:31;6.80;;;3.70;;
61477;SDS011;47345;52.334;10.392;2022-07-21T07:22:01;7.30;;;3.60;;
61477;SDS011;47345;52.334;10.392;2022-07-21T07:24:32;5.00;;;3.40;;
61477;SDS011;47345;52.334;10.392;2022-07-21T07:27:02;4.40;;;3.30;;
61477;SDS011;47345;52.334;10.392;2022-07-21T07:29:32;8.10;;;3.80;;
61477;SDS011;47345;52.334;10.392;2022-07-21T07:32:03;5.30;;;3.20;;
61477;SDS011;47345;52.334;10.392;2022-07-21T07:34:34;4.90;;;3.60;;
61477;SDS011;47345;52.334;10.392;2022-07-21T07:37:04;6.20;;;3.60;;
61477;SDS011;47345;52.334;10.392;2022-07-21T07:39:35;4.60;;;3.60;;
61477;SDS011;47345;52.334;10.392;2022-07-21T07:42:06;4.50;;;3.40;;
61477;SDS011;47345;52.334;10.392;2022-07-21T07:44:37;5.20;;;3.40;;
61477;SDS011;47345;52.334;10.392;2022-07-21T07:47:08;4.20;;;3.20;;
61477;SDS011;47345;52.334;10.392;2022-07-21T07:49:38;4.40;;;3.10;;
61477;SDS011;47345;52.334;10.392;2022-07-21T07:52:08;3.90;;;2.80;;
61477;SDS011;47345;52.334;10.392;2022-07-21T07:54:40;4.10;;;3.00;;
61477;SDS011;47345;52.334;10.392;2022-07-21T07:57:10;4.20;;;3.20;;
61477;SDS011;47345;52.334;10.392;2022-07-21T07:59:40;4.20;;;3.20;;
61477;SDS011;47345;52.334;10.392;2022-07-21T08:02:11;4.60;;;3.10;;
61477;SDS011;47345;52.334;10.392;2022-07-21T08:04:42;5.00;;;3.20;;
61477;SDS011;47345;52.334;10.392;2022-07-21T08:07:12;5.80;;;3.70;;
61477;SDS011;47345;52.334;10.392;2022-07-21T08:09:43;3.60;;;2.90;;
61477;SDS011;47345;52.334;10.392;2022-07-21T08:12:13;3.70;;;3.10;;
61477;SDS011;47345;52.334;10.392;2022-07-21T08:14:43;5.10;;;3.20;;
61477;SDS011;47345;52.334;10.392;2022-07-21T08:17:14;5.10;;;3.50;;
61477;SDS011;47345;52.334;10.392;2022-07-21T08:19:45;3.40;;;3.00;;
61477;SDS011;47345;52.334;10.392;2022-07-21T08:22:15;5.90;;;3.10;;
61477;SDS011;47345;52.334;10.392;2022-07-21T08:24:46;4.70;;;3.10;;
61477;SDS011;47345;52.334;10.392;2022-07-21T08:27:16;3.30;;;2.60;;
61477;SDS011;47345;52.334;10.392;2022-07-21T08:29:46;3.50;;;2.90;;
61477;SDS011;47345;52.334;10.392;2022-07-21T08:32:17;3.00;;;2.50;;
61477;SDS011;47345;52.334;10.392;2022-07-21T08:34:47;5.30;;;2.80;;
61477;SDS011;47345;52.334;10.392;2022-07-21T08:37:19;4.90;;;3.00;;
61477;SDS011;47345;52.334;10.392;2022-07-21T08:39:50;3.30;;;2.50;;
61477;SDS011;47345;52.334;10.392;2022-07-21T08:42:20;3.00;;;2.40;;
61477;SDS011;47345;52.334;10.392;2022-07-21T08:44:51;4.10;;;2.60;;
61477;SDS011;47345;52.334;10.392;2022-07-21T08:47:22;3.00;;;2.60;;
61477;SDS011;47345;52.334;10.392;2022-07-21T08:49:54;3.70;;;2.80;;
61477;SDS011;47345;52.334;10.392;2022-07-21T08:52:25;3.20;;;2.40;;
61477;SDS011;47345;52.334;10.392;2022-07-21T08:54:56;5.20;;;2.10;;
61477;SDS011;47345;52.334;10.392;2022-07-21T08:57:27;2.30;;;2.00;;
61477;SDS011;47345;52.334;10.392;2022-07-21T08:59:59;2.30;;;2.10;;
61477;SDS011;47345;52.334;10.392;2022-07-21T09:02:32;2.40;;;2.10;;
61477;SDS011;47345;52.334;10.392;2022-07-21T09:05:06;2.80;;;1.60;;
61477;SDS011;47345;52.334;10.392;2022-07-21T09:07:47;2.10;;;1.90;;
61477;SDS011;47345;52.334;10.392;2022-07-21T09:10:23;2.00;;;1.90;;
61477;SDS011;47345;52.334;10.392;2022-07-21T09:12:56;2.20;;;2.00;;
61477;SDS011;47345;52.334;10.392;2022-07-21T09:15:29;1.70;;;1.60;;
61477;SDS011;47345;52.334;10.392;2022-07-21T09:18:07;2.00;;;1.80;;
61477;SDS011;47345;52.334;10.392;2022-07-21T09:20:46;2.20;;;2.00;;
61477;SDS011;47345;52.334;10.392;2022-07-21T09:23:18;2.80;;;2.00;;
61477;SDS011;47345;52.334;10.392;2022-07-21T09:25:51;2.40;;;1.90;;
61477;SDS011;47345;52.334;10.392;2022-07-21T09:28:24;2.40;;;2.10;;
61477;SDS011;47345;52.334;10.392;2022-07-21T09:30:56;1.80;;;1.70;;
61477;SDS011;47345;52.334;10.392;2022-07-21T09:33:29;2.20;;;2.00;;
61477;SDS011;47345;52.334;10.392;2022-07-21T09:36:02;2.10;;;2.00;;
61477;SDS011;47345;52.334;10.392;2022-07-21T09:38:36;2.70;;;2.10;;
61477;SDS011;47345;52.334;10.392;2022-07-21T09:41:10;2.10;;;2.00;;
61477;SDS011;47345;52.334;10.392;2022-07-21T09:43:43;2.00;;;1.90;;
61477;SDS011;47345;52.334;10.392;2022-07-21T09:46:17;2.10;;;1.90;;
61477;SDS011;47345;52.334;10.392;2022-07-21T09:48:50;2.20;;;2.00;;
61477;SDS011;47345;52.334;10.392;2022-07-21T09:51:42;2.60;;;1.70;;
61477;SDS011;47345;52.334;10.392;2022-07-21T09:54:13;2.70;;;1.70;;
61477;SDS011;47345;52.334;10.392;2022-07-21T09:56:44;1.70;;;1.60;;
61477;SDS011;47345;52.334;10.392;2022-07-21T09:59:15;1.60;;;1.50;;
61477;SDS011;47345;52.334;10.392;2022-07-21T10:01:47;1.90;;;1.30;;
61477;SDS011;47345;52.334;10.392;2022-07-21T10:04:18;1.10;;;1.10;;
61477;SDS011;47345;52.334;10.392;2022-07-21T10:07:11;1.20;;;1.20;;
61477;SDS011;47345;52.334;10.392;2022-07-21T10:09:42;1.20;;;1.20;;
61477;SDS011;47345;52.334;10.392;2022-07-21T10:12:13;1.60;;;1.50;;
61477;SDS011;47345;52.334;10.392;2022-07-21T10:14:44;1.60;;;1.50;;
61477;SDS011;47345;52.334;10.392;2022-07-21T10:17:17;1.30;;;1.20;;
61477;SDS011;47345;52.334;10.392;2022-07-21T10:19:52;1.50;;;1.40;;
61477;SDS011;47345;52.334;10.392;2022-07-21T10:22:34;1.70;;;1.60;;
61477;SDS011;47345;52.334;10.392;2022-07-21T10:25:18;1.40;;;1.30;;
61477;SDS011;47345;52.334;10.392;2022-07-21T10:30:46;1.80;;;1.70;;
61477;SDS011;47345;52.334;10.392;2022-07-21T10:33:19;2.10;;;1.90;;
61477;SDS011;47345;52.334;10.392;2022-07-21T10:35:51;3.00;;;2.30;;
61477;SDS011;47345;52.334;10.392;2022-07-21T10:38:28;2.30;;;2.10;;
61477;SDS011;47345;52.334;10.392;2022-07-21T10:41:01;2.50;;;2.30;;
61477;SDS011;47345;52.334;10.392;2022-07-21T10:43:36;2.40;;;2.20;;
61477;SDS011;47345;52.334;10.392;2022-07-21T10:49:13;3.00;;;2.70;;
61477;SDS011;47345;52.334;10.392;2022-07-21T10:55:37;3.00;;;2.50;;
61477;SDS011;47345;52.334;10.392;2022-07-21T10:58:20;3.80;;;2.80;;
61477;SDS011;47345;52.334;10.392;2022-07-21T11:00:55;4.30;;;2.90;;
61477;SDS011;47345;52.334;10.392;2022-07-21T11:03:34;3.30;;;2.70;;
61477;SDS011;47345;52.334;10.392;2022-07-21T11:06:13;2.80;;;2.50;;
61477;SDS011;47345;52.334;10.392;2022-07-21T11:09:05;4.30;;;2.60;;
61477;SDS011;47345;52.334;10.392;2022-07-21T11:11:55;2.90;;;2.60;;
61477;SDS011;47345;52.334;10.392;2022-07-21T11:14:37;4.90;;;3.60;;
61477;SDS011;47345;52.334;10.392;2022-07-21T11:17:10;4.40;;;3.10;;
61477;SDS011;47345;52.334;10.392;2022-07-21T11:19:53;3.80;;;3.30;;
61477;SDS011;47345;52.334;10.392;2022-07-21T11:22:24;4.20;;;3.20;;
61477;SDS011;47345;52.334;10.392;2022-07-21T11:24:56;2.90;;;2.60;;
61477;SDS011;47345;52.334;10.392;2022-07-21T11:27:29;3.50;;;2.70;;
61477;SDS011;47345;52.334;10.392;2022-07-21T11:30:03;5.00;;;3.70;;
61477;SDS011;47345;52.334;10.392;2022-07-21T11:32:35;4.40;;;3.60;;
61477;SDS011;47345;52.334;10.392;2022-07-21T11:35:06;6.30;;;3.50;;
61477;SDS011;47345;52.334;10.392;2022-07-21T11:37:38;3.70;;;3.10;;
61477;SDS011;47345;52.334;10.392;2022-07-21T11:40:11;3.90;;;3.10;;
61477;SDS011;47345;52.334;10.392;2022-07-21T11:42:44;4.00;;;3.10;;
61477;SDS011;47345;52.334;10.392;2022-07-21T11:45:16;3.20;;;2.80;;
61477;SDS011;47345;52.334;10.392;2022-07-21T11:47:49;3.60;;;3.20;;
61477;SDS011;47345;52.334;10.392;2022-07-21T11:50:19;2.60;;;2.30;;
61477;SDS011;47345;52.334;10.392;2022-07-21T11:52:50;3.50;;;2.80;;
61477;SDS011;47345;52.334;10.392;2022-07-21T11:55:20;2.70;;;2.50;;
61477;SDS011;47345;52.334;10.392;2022-07-21T11:57:56;3.10;;;2.80;;
61477;SDS011;47345;52.334;10.392;2022-07-21T12:00:26;3.80;;;3.10;;
61477;SDS011;47345;52.334;10.392;2022-07-21T12:03:05;4.50;;;3.10;;
61477;SDS011;47345;52.334;10.392;2022-07-21T12:05:36;3.90;;;3.00;;
61477;SDS011;47345;52.334;10.392;2022-07-21T12:08:07;3.00;;;2.70;;
61477;SDS011;47345;52.334;10.392;2022-07-21T12:10:37;3.10;;;2.80;;
61477;SDS011;47345;52.334;10.392;2022-07-21T12:13:08;4.40;;;3.00;;
61477;SDS011;47345;52.334;10.392;2022-07-21T12:15:42;5.10;;;2.60;;
61477;SDS011;47345;52.334;10.392;2022-07-21T12:18:18;3.50;;;2.80;;
61477;SDS011;47345;52.334;10.392;2022-07-21T12:21:01;3.90;;;3.00;;
61477;SDS011;47345;52.334;10.392;2022-07-21T12:23:33;3.40;;;2.90;;
61477;SDS011;47345;52.334;10.392;2022-07-21T12:26:04;2.90;;;2.60;;
61477;SDS011;47345;52.334;10.392;2022-07-21T12:28:43;4.70;;;2.90;;
61477;SDS011;47345;52.334;10.392;2022-07-21T12:31:16;4.80;;;3.00;;
61477;SDS011;47345;52.334;10.392;2022-07-21T12:33:50;3.30;;;2.70;;
61477;SDS011;47345;52.334;10.392;2022-07-21T12:36:43;3.20;;;2.70;;
61477;SDS011;47345;52.334;10.392;2022-07-21T12:39:15;3.20;;;2.70;;
61477;SDS011;47345;52.334;10.392;2022-07-21T12:42:06;6.50;;;2.90;;
61477;SDS011;47345;52.334;10.392;2022-07-21T12:44:38;6.00;;;3.40;;
61477;SDS011;47345;52.334;10.392;2022-07-21T12:47:18;3.00;;;2.70;;
61477;SDS011;47345;52.334;10.392;2022-07-21T12:49:54;2.60;;;2.40;;
61477;SDS011;47345;52.334;10.392;2022-07-21T12:52:39;3.00;;;2.30;;
61477;SDS011;47345;52.334;10.392;2022-07-21T12:55:10;2.60;;;2.40;;
61477;SDS011;47345;52.334;10.392;2022-07-21T12:57:40;2.50;;;2.30;;
61477;SDS011;47345;52.334;10.392;2022-07-21T13:00:11;3.10;;;2.70;;
61477;SDS011;47345;52.334;10.392;2022-07-21T13:02:48;3.00;;;2.70;;
61477;SDS011;47345;52.334;10.392;2022-07-21T13:05:21;3.50;;;2.60;;
61477;SDS011;47345;52.334;10.392;2022-07-21T13:07:52;3.20;;;2.80;;
61477;SDS011;47345;52.334;10.392;2022-07-21T13:10:23;3.30;;;2.70;;
61477;SDS011;47345;52.334;10.392;2022-07-21T13:12:54;4.00;;;2.90;;
61477;SDS011;47345;52.334;10.392;2022-07-21T13:15:24;3.60;;;2.50;;
61477;SDS011;47345;52.334;10.392;2022-07-21T13:17:54;5.50;;;2.80;;
61477;SDS011;47345;52.334;10.392;2022-07-21T13:20:25;3.80;;;3.00;;
61477;SDS011;47345;52.334;10.392;2022-07-21T13:22:55;3.70;;;3.10;;
61477;SDS011;47345;52.334;10.392;2022-07-21T13:25:26;4.10;;;3.00;;
61477;SDS011;47345;52.334;10.392;2022-07-21T13:28:00;3.20;;;2.80;;
61477;SDS011;47345;52.334;10.392;2022-07-21T13:30:30;3.90;;;3.00;;
61477;SDS011;47345;52.334;10.392;2022-07-21T13:33:08;4.80;;;2.90;;
61477;SDS011;47345;52.334;10.392;2022-07-21T13:35:39;2.70;;;2.50;;
61477;SDS011;47345;52.334;10.392;2022-07-21T13:38:09;5.30;;;2.80;;
61477;SDS011;47345;52.334;10.392;2022-07-21T13:40:40;3.10;;;2.80;;
61477;SDS011;47345;52.334;10.392;2022-07-21T13:43:31;4.20;;;2.90;;
61477;SDS011;47345;52.334;10.392;2022-07-21T13:46:06;2.80;;;2.50;;
61477;SDS011;47345;52.334;10.392;2022-07-21T13:48:37;3.30;;;2.80;;
61477;SDS011;47345;52.334;10.392;2022-07-21T13:51:11;3.30;;;2.80;;
61477;SDS011;47345;52.334;10.392;2022-07-21T13:53:43;4.70;;;2.70;;
61477;SDS011;47345;52.334;10.392;2022-07-21T13:56:15;5.30;;;2.80;;
61477;SDS011;47345;52.334;10.392;2022-07-21T13:58:45;3.50;;;2.50;;
61477;SDS011;47345;52.334;10.392;2022-07-21T14:01:16;3.40;;;2.80;;
61477;SDS011;47345;52.334;10.392;2022-07-21T14:03:47;3.60;;;2.60;;
61477;SDS011;47345;52.334;10.392;2022-07-21T14:06:20;4.30;;;2.50;;
61477;SDS011;47345;52.334;10.392;2022-07-21T14:08:53;3.40;;;2.80;;
61477;SDS011;47345;52.334;10.392;2022-07-21T14:11:23;2.80;;;2.50;;
61477;SDS011;47345;52.334;10.392;2022-07-21T14:13:55;2.70;;;2.30;;
61477;SDS011;47345;52.334;10.392;2022-07-21T14:16:26;2.60;;;2.30;;
61477;SDS011;47345;52.334;10.392;2022-07-21T14:18:57;2.80;;;2.50;;
61477;SDS011;47345;52.334;10.392;2022-07-21T14:21:28;2.40;;;2.20;;
61477;SDS011;47345;52.334;10.392;2022-07-21T14:23:59;3.10;;;2.40;;
61477;SDS011;47345;52.334;10.392;2022-07-21T14:26:47;2.70;;;2.30;;
61477;SDS011;47345;52.334;10.392;2022-07-21T14:29:18;2.50;;;2.30;;
61477;SDS011;47345;52.334;10.392;2022-07-21T14:31:48;2.30;;;2.10;;
61477;SDS011;47345;52.334;10.392;2022-07-21T14:34:19;2.80;;;2.50;;
61477;SDS011;47345;52.334;10.392;2022-07-21T14:36:49;2.30;;;2.00;;
61477;SDS011;47345;52.334;10.392;2022-07-21T14:39:21;2.60;;;2.40;;
61477;SDS011;47345;52.334;10.392;2022-07-21T14:41:51;3.20;;;2.60;;
61477;SDS011;47345;52.334;10.392;2022-07-21T14:44:21;3.70;;;3.00;;
61477;SDS011;47345;52.334;10.392;2022-07-21T14:46:51;2.60;;;2.40;;
61477;SDS011;47345;52.334;10.392;2022-07-21T14:49:21;4.00;;;2.90;;
61477;SDS011;47345;52.334;10.392;2022-07-21T14:51:51;7.30;;;3.10;;
61477;SDS011;47345;52.334;10.392;2022-07-21T14:54:22;2.90;;;2.60;;
61477;SDS011;47345;52.334;10.392;2022-07-21T14:56:52;3.20;;;2.90;;
61477;SDS011;47345;52.334;10.392;2022-07-21T14:59:37;3.40;;;2.70;;
61477;SDS011;47345;52.334;10.392;2022-07-21T15:02:08;3.30;;;2.80;;
61477;SDS011;47345;52.334;10.392;2022-07-21T15:04:47;3.30;;;2.80;;
61477;SDS011;47345;52.334;10.392;2022-07-21T15:07:18;4.30;;;2.90;;
61477;SDS011;47345;52.334;10.392;2022-07-21T15:09:48;3.50;;;3.10;;
61477;SDS011;47345;52.334;10.392;2022-07-21T15:12:19;4.40;;;3.30;;
61477;SDS011;47345;52.334;10.392;2022-07-21T15:14:49;3.60;;;3.10;;